ENMS/MJF METAR and TAF weather

Enter ICAO airport designator
Station Type Date Time Source
ENMS METAR 2018/01/19 20:50 UTC NOAA

ENMS 192050Z VRB02KT CAVOK M13/M15 Q1002 RMK WIND 412FT 15004KT


Station Type Date Time Source
ENMS Decoded METAR 2018/01/19 20:50 UTC NOAA

Mosjoen Kjaerstad, Norway (ENMS) 65-48N 013-08E
Jan 19, 2018 - 03:50 PM EST / 2018.01.19 2050 UTC
Wind: Variable at 2 MPH (2 KT):0
Visibility: greater than 7 mile(s):0
Temperature: 8 F (-13 C)
Dew Point: 5 F (-15 C)
Relative Humidity: 84%
Pressure (altimeter): 29.59 in. Hg (1002 hPa)
ob: ENMS 192050Z VRB02KT CAVOK M13/M15 Q1002 RMK WIND 412FT 15004KT
cycle: 21

Station Type Date Time Source
ENMS TAF UTC NOAA

Error!


Example: see airport list